Time;durP1;ratioP1;P1;durP2;ratioP2;P2;SDS_P1;SDS_P2;PMS_P1;PMS_P2;Temp;Humidity;BMP_temperature;BMP_pressure;BME280_temperature;BME280_humidity;BME280_pressure;Samples;Min_cycle;Max_cycle;Signal;HPM_P1;HPM_P2
2022/08/21 00:00:39;;;;;;;8.65;7.72;;;;;;;14.98;100.00;98659.84;4185220;28;20056;-71
2022/08/21 00:02:47;;;;;;;10.30;7.57;;;;;;;14.97;100.00;98663.81;4185147;28;20308;-71
2022/08/21 00:04:48;;;;;;;8.98;6.88;;;;;;;14.96;100.00;98662.22;4184646;28;20063;-71
2022/08/21 00:06:52;;;;;;;9.40;8.10;;;;;;;14.91;100.00;98657.88;4184514;28;20052;-71
2022/08/21 00:08:52;;;;;;;8.15;7.15;;;;;;;14.93;100.00;98655.47;4184157;28;20052;-71
2022/08/21 00:10:53;;;;;;;8.40;7.22;;;;;;;14.95;100.00;98660.63;4185288;28;20476;-71
2022/08/21 00:12:53;;;;;;;9.10;7.60;;;;;;;14.92;100.00;98658.66;4185008;28;20433;-71
2022/08/21 00:14:54;;;;;;;10.95;7.75;;;;;;;14.87;100.00;98654.28;4185238;28;20048;-71
2022/08/21 00:16:54;;;;;;;8.27;7.30;;;;;;;14.84;100.00;98655.09;4184983;28;20458;-71
2022/08/21 00:18:54;;;;;;;11.25;7.38;;;;;;;14.79;100.00;98650.72;4184078;28;20048;-71
2022/08/21 00:20:55;;;;;;;10.15;7.45;;;;;;;14.78;100.00;98645.56;4184451;28;20124;-71
2022/08/21 00:22:55;;;;;;;11.77;7.55;;;;;;;14.78;100.00;98642.78;4184116;28;20360;-71
2022/08/21 00:24:56;;;;;;;8.15;7.28;;;;;;;14.76;100.00;98647.97;4183669;28;20392;-71
2022/08/21 00:26:56;;;;;;;6.88;6.10;;;;;;;14.74;100.00;98642.78;4185390;28;20538;-71
2022/08/21 00:28:57;;;;;;;10.57;7.38;;;;;;;14.72;100.00;98642.38;4182318;28;20059;-71
2022/08/21 00:30:58;;;;;;;8.23;6.78;;;;;;;14.76;100.00;98651.53;4184284;28;20036;-71
2022/08/21 00:32:59;;;;;;;8.73;6.65;;;;;;;14.76;100.00;98654.31;4184129;28;20044;-71
2022/08/21 00:34:59;;;;;;;7.07;6.25;;;;;;;14.82;100.00;98647.16;4184294;28;20075;-71
2022/08/21 00:37:00;;;;;;;9.30;6.22;;;;;;;14.90;100.00;98647.94;4185574;28;20079;-71
2022/08/21 00:39:01;;;;;;;8.55;6.70;;;;;;;15.00;100.00;98647.09;4183402;28;20449;-71
2022/08/21 00:41:06;;;;;;;7.70;6.22;;;;;;;15.03;100.00;98643.50;4183651;28;20408;-71
2022/08/21 00:43:10;;;;;;;8.38;6.28;;;;;;;15.07;100.00;98649.06;4183746;28;20045;-71
2022/08/21 00:45:11;;;;;;;8.63;6.63;;;;;;;15.12;100.00;98655.00;4185214;28;20040;-71
2022/08/21 00:47:12;;;;;;;8.90;6.05;;;;;;;15.10;100.00;98645.47;4184732;28;20072;-71
2022/08/21 00:49:13;;;;;;;6.97;5.80;;;;;;;15.12;100.00;98645.84;4184517;28;20098;-71
2022/08/21 00:51:22;;;;;;;7.55;5.15;;;;;;;15.11;99.79;98638.69;4184297;28;20210;-71
2022/08/21 00:53:23;;;;;;;7.15;4.97;;;;;;;15.07;100.00;98646.28;4183996;28;20043;-71
2022/08/21 00:55:24;;;;;;;8.73;5.70;;;;;;;15.04;99.79;98644.28;4186640;28;20041;-71
2022/08/21 00:57:32;;;;;;;8.95;6.03;;;;;;;14.95;100.00;98643.91;4188166;28;20602;-71
2022/08/21 00:59:37;;;;;;;11.52;6.20;;;;;;;14.83;100.00;98634.81;4186563;28;20054;-71
2022/08/21 01:01:37;;;;;;;6.50;5.53;;;;;;;14.77;100.00;98638.41;4187217;28;20676;-71
2022/08/21 01:03:38;;;;;;;7.03;5.95;;;;;;;14.69;100.00;98642.41;4187166;28;20182;-71
2022/08/21 01:05:39;;;;;;;7.28;6.13;;;;;;;14.65;100.00;98642.44;4188019;28;20074;-71
2022/08/21 01:07:41;;;;;;;6.30;5.57;;;;;;;14.67;100.00;98644.81;4187672;28;20442;-71
2022/08/21 01:09:43;;;;;;;8.77;5.70;;;;;;;14.70;100.00;98655.91;4185645;28;20264;-71
2022/08/21 01:11:45;;;;;;;7.07;6.15;;;;;;;14.74;100.00;98644.78;4186418;28;20495;-72
2022/08/21 01:13:46;;;;;;;7.97;6.88;;;;;;;14.67;100.00;98642.03;4187847;28;20052;-71
2022/08/21 01:15:49;;;;;;;7.10;5.85;;;;;;;14.65;100.00;98642.44;4186939;28;20045;-71
2022/08/21 01:17:51;;;;;;;6.75;5.72;;;;;;;14.65;100.00;98642.44;4188450;28;20472;-71
2022/08/21 01:19:51;;;;;;;7.10;6.13;;;;;;;14.57;100.00;98641.66;4185882;28;20037;-71
2022/08/21 01:21:53;;;;;;;8.55;6.15;;;;;;;14.54;100.00;98638.84;4187652;28;20044;-71
2022/08/21 01:23:56;;;;;;;6.65;5.95;;;;;;;14.52;100.00;98633.69;4187111;28;20051;-72
2022/08/21 01:25:56;;;;;;;;;;;;;;;14.52;100.00;98638.47;4188323;28;20041;-71
2022/08/21 01:28:01;;;;;;;8.50;5.68;;;;;;;14.42;100.00;98628.91;4186522;28;19923;-72
2022/08/21 01:30:11;;;;;;;6.03;5.40;;;;;;;14.38;100.00;98639.25;4187372;28;20367;-71
2022/08/21 01:32:14;;;;;;;8.35;5.80;;;;;;;14.30;100.00;98641.22;4187525;28;20189;-71
2022/08/21 01:34:15;;;;;;;5.88;5.25;;;;;;;14.32;100.00;98641.66;4185457;28;20559;-71
2022/08/21 01:36:16;;;;;;;5.53;4.50;;;;;;;14.38;100.00;98639.25;4186575;28;20028;-71
2022/08/21 01:38:17;;;;;;;5.43;4.88;;;;;;;14.39;100.00;98643.59;4186986;28;20527;-71
2022/08/21 01:40:18;;;;;;;4.85;4.35;;;;;;;14.33;100.00;98636.88;4178367;28;20043;-71
2022/08/21 01:42:19;;;;;;;5.82;5.22;;;;;;;14.20;100.00;98639.25;4187438;28;20020;-71
2022/08/21 01:44:23;;;;;;;6.25;5.32;;;;;;;14.10;100.00;98644.84;4184466;28;20025;-71
2022/08/21 01:46:24;;;;;;;5.43;4.82;;;;;;;13.96;100.00;98632.50;4185567;28;20052;-71
2022/08/21 01:48:24;;;;;;;5.85;4.93;;;;;;;13.90;100.00;98641.63;4185509;28;20499;-71
2022/08/21 01:50:25;;;;;;;5.30;4.75;;;;;;;13.87;100.00;98637.66;4186354;28;20052;-71
2022/08/21 01:52:25;;;;;;;6.47;4.88;;;;;;;13.83;100.00;98644.44;4186503;28;20218;-71
2022/08/21 01:54:26;;;;;;;5.15;4.63;;;;;;;13.77;100.00;98638.44;4186239;28;20135;-71
2022/08/21 01:56:27;;;;;;;5.35;4.85;;;;;;;13.76;100.00;98631.31;4187392;28;20545;-71
2022/08/21 01:58:27;;;;;;;6.63;4.72;;;;;;;13.75;100.00;98641.63;4187026;28;20044;-71
2022/08/21 02:00:28;;;;;;;4.78;4.28;;;;;;;13.69;100.00;98645.19;4186436;28;20529;-71
2022/08/21 02:02:29;;;;;;;4.72;4.32;;;;;;;13.67;100.00;98642.81;4186287;28;20499;-71
2022/08/21 02:04:30;;;;;;;6.47;4.63;;;;;;;13.66;100.00;98637.66;4187108;28;20044;-71
2022/08/21 02:06:30;;;;;;;5.88;5.28;;;;;;;13.69;100.00;98643.22;4185353;28;20144;-71
2022/08/21 02:08:31;;;;;;;5.30;4.72;;;;;;;13.70;100.00;98636.44;4186188;28;20119;-71
2022/08/21 02:10:32;;;;;;;8.98;5.68;;;;;;;13.72;100.00;98636.84;4186359;28;20045;-71
2022/08/21 02:12:33;;;;;;;7.25;5.05;;;;;;;13.76;100.00;98640.44;4186417;28;20106;-71
2022/08/21 02:14:33;;;;;;;5.28;4.78;;;;;;;13.81;100.00;98632.88;4187081;28;20067;-71
2022/08/21 02:16:34;;;;;;;6.22;4.60;;;;;;;13.91;100.00;98630.13;4187282;28;20041;-71
2022/08/21 02:18:35;;;;;;;9.20;4.82;;;;;;;13.95;100.00;98627.34;4186098;28;20610;-71
2022/08/21 02:20:39;;;;;;;5.57;3.90;;;;;;;13.93;100.00;98633.31;4186410;28;20129;-71
2022/08/21 02:22:39;;;;;;;4.13;3.20;;;;;;;13.77;99.92;98627.31;4186457;28;20047;-71
2022/08/21 02:24:40;;;;;;;3.80;2.60;;;;;;;13.62;100.00;98626.50;4185317;28;20481;-71
2022/08/21 02:26:40;;;;;;;3.25;2.95;;;;;;;13.41;100.00;98627.28;4119556;28;20052;-71
2022/08/21 02:28:42;;;;;;;3.22;2.85;;;;;;;13.35;100.00;98622.50;4185939;28;20124;-71
2022/08/21 02:30:45;;;;;;;2.90;2.70;;;;;;;13.33;100.00;98622.09;4186435;28;20827;-71
2022/08/21 02:32:45;;;;;;;4.03;3.40;;;;;;;13.28;100.00;98623.25;4186297;28;20048;-71
2022/08/21 02:34:46;;;;;;;3.50;3.20;;;;;;;13.26;100.00;98624.84;4185639;28;20101;-71
2022/08/21 02:36:46;;;;;;;3.55;3.25;;;;;;;13.18;100.00;98626.78;4186677;28;20492;-71
2022/08/21 02:38:47;;;;;;;3.47;3.17;;;;;;;13.15;100.00;98628.31;4186045;28;20189;-71
2022/08/21 02:40:50;;;;;;;3.92;3.55;;;;;;;13.17;100.00;98628.75;4186080;28;20056;-71
2022/08/21 02:42:50;;;;;;;4.50;3.65;;;;;;;13.23;100.00;98631.97;4186280;28;20045;-71
2022/08/21 02:44:50;;;;;;;5.20;4.30;;;;;;;13.14;100.00;98634.28;4186744;28;20114;-71
2022/08/21 02:46:51;;;;;;;3.92;3.58;;;;;;;13.10;100.00;98633.50;4185163;28;20094;-71
2022/08/21 02:48:51;;;;;;;4.43;4.03;;;;;;;13.07;100.00;98631.47;4185957;28;20044;-71
2022/08/21 02:51:05;;;;;;;3.55;3.25;;;;;;;13.14;100.00;98634.28;4184734;28;20159;-71
2022/08/21 02:53:07;;;;;;;4.65;4.15;;;;;;;13.18;100.00;98632.31;4185524;28;20068;-71
2022/08/21 02:55:07;;;;;;;5.20;4.13;;;;;;;13.21;100.00;98637.13;4186257;28;20080;-71
2022/08/21 02:57:08;;;;;;;4.40;4.00;;;;;;;13.12;100.00;98631.09;4186066;28;20052;-71
2022/08/21 02:59:08;;;;;;;4.60;3.55;;;;;;;13.08;100.00;98630.31;4184559;28;20054;-71
2022/08/21 03:01:10;;;;;;;4.43;3.67;;;;;;;13.03;100.00;98620.38;4184950;28;20047;-71
2022/08/21 03:03:12;;;;;;;4.07;3.67;;;;;;;13.03;100.00;98633.47;4185883;28;20044;-71
2022/08/21 03:05:13;;;;;;;4.30;3.90;;;;;;;12.92;100.00;98627.88;4186065;28;20059;-71
2022/08/21 03:07:15;;;;;;;4.30;3.90;;;;;;;12.79;100.00;98621.84;4184896;28;20048;-71
2022/08/21 03:09:15;;;;;;;4.65;3.65;;;;;;;12.67;100.00;98615.84;4185185;28;20044;-71
2022/08/21 03:11:15;;;;;;;5.15;4.03;;;;;;;12.57;100.00;98617.34;4186365;28;20051;-71
2022/08/21 03:13:17;;;;;;;7.80;4.43;;;;;;;12.52;100.00;98623.28;4186534;28;20055;-71
2022/08/21 03:15:21;;;;;;;4.75;4.18;;;;;;;12.49;100.00;98619.28;4185698;28;20502;-71
2022/08/21 03:17:22;;;;;;;6.93;3.88;;;;;;;12.56;100.00;98629.63;4184933;28;20051;-71
2022/08/21 03:19:22;;;;;;;4.50;4.05;;;;;;;12.63;100.00;98630.47;4184865;28;20048;-71
2022/08/21 03:21:23;;;;;;;4.60;3.67;;;;;;;12.65;100.00;98630.09;4185409;28;20047;-71
2022/08/21 03:23:23;;;;;;;4.20;3.40;;;;;;;12.61;100.00;98629.28;4185238;28;20048;-71
2022/08/21 03:25:26;;;;;;;4.10;3.47;;;;;;;12.59;100.00;98634.44;4185734;28;20036;-71
2022/08/21 03:27:27;;;;;;;;;;;;;;;12.54;100.00;98640.34;4184583;28;20044;-71
2022/08/21 03:29:27;;;;;;;3.85;3.20;;;;;;;12.45;100.00;98635.13;4185063;28;20003;-71
2022/08/21 03:31:30;;;;;;;3.63;3.30;;;;;;;12.45;100.00;98634.34;4183794;28;20048;-71
2022/08/21 03:33:31;;;;;;;4.53;3.92;;;;;;;12.42;100.00;98627.59;4185298;28;20113;-71
2022/08/21 03:35:32;;;;;;;5.28;4.20;;;;;;;12.41;100.00;98633.50;4185683;28;20136;-71
2022/08/21 03:37:32;;;;;;;5.63;3.92;;;;;;;12.45;100.00;98640.69;4185692;28;20084;-71
2022/08/21 03:39:33;;;;;;;4.13;3.72;;;;;;;12.49;100.00;98646.25;4185836;28;20044;-71
2022/08/21 03:41:34;;;;;;;6.07;3.30;;;;;;;12.53;100.00;98636.78;4184422;28;20091;-71
2022/08/21 03:43:35;;;;;;;3.78;3.42;;;;;;;12.57;100.00;98634.81;4185318;28;20036;-71
2022/08/21 03:45:35;;;;;;;5.20;3.75;;;;;;;12.56;100.00;98635.19;4185169;28;20769;-71
2022/08/21 03:47:36;;;;;;;3.90;3.40;;;;;;;12.54;100.00;98640.34;4185777;28;20094;-71
2022/08/21 03:49:37;;;;;;;5.97;3.38;;;;;;;12.42;100.00;98638.69;4184292;28;20045;-71
2022/08/21 03:51:37;;;;;;;12.98;3.88;;;;;;;12.29;100.00;98640.16;4183590;28;20040;-71
2022/08/21 03:53:37;;;;;;;11.60;3.67;;;;;;;12.17;100.00;98646.84;4184907;28;20115;-71
2022/08/21 03:55:38;;;;;;;8.98;3.63;;;;;;;12.06;100.00;98646.72;4184738;28;20076;-71
2022/08/21 03:57:38;;;;;;;3.97;3.50;;;;;;;12.03;100.00;98653.06;4185909;28;20055;-71
2022/08/21 03:59:39;;;;;;;5.55;3.30;;;;;;;11.96;100.00;98641.91;4184143;28;20590;-71
2022/08/21 04:01:39;;;;;;;6.28;3.55;;;;;;;11.92;100.00;98651.38;4184898;28;20132;-71
2022/08/21 04:03:39;;;;;;;4.65;3.00;;;;;;;11.87;100.00;98635.88;4183735;28;20044;-71
2022/08/21 04:05:40;;;;;;;4.25;3.70;;;;;;;11.85;100.00;98643.00;4184941;28;20067;-71
2022/08/21 04:07:41;;;;;;;4.80;3.53;;;;;;;11.83;100.00;98643.34;4184383;28;20063;-71
2022/08/21 04:09:41;;;;;;;4.85;3.97;;;;;;;11.80;100.00;98649.69;4184296;28;20504;-71
2022/08/21 04:11:41;;;;;;;6.80;4.18;;;;;;;11.84;100.00;98646.94;4185474;28;20057;-71
2022/08/21 04:13:42;;;;;;;5.00;4.40;;;;;;;11.80;100.00;98644.94;4184824;28;20044;-71
2022/08/21 04:15:42;;;;;;;7.70;4.82;;;;;;;11.84;100.00;98646.94;4185157;28;20153;-71
2022/08/21 04:17:43;;;;;;;5.70;4.60;;;;;;;11.85;100.00;98649.34;4185884;28;20097;-71
2022/08/21 04:19:44;;;;;;;6.78;5.20;;;;;;;11.85;100.00;98657.66;4183385;28;20055;-71
2022/08/21 04:21:44;;;;;;;8.38;5.10;;;;;;;11.82;100.00;98653.66;4177952;28;20586;-71
2022/08/21 04:23:45;;;;;;;13.73;6.22;;;;;;;11.81;100.00;98648.50;4185357;28;20318;-71
2022/08/21 04:25:45;;;;;;;8.95;6.47;;;;;;;11.82;100.00;98644.53;4184761;28;20198;-71
2022/08/21 04:27:46;;;;;;;14.43;6.45;;;;;;;11.87;100.00;98652.50;4183406;28;20048;-71
2022/08/21 04:29:47;;;;;;;10.45;6.50;;;;;;;11.81;100.00;98657.59;4183417;28;20040;-71
2022/08/21 04:31:47;;;;;;;13.55;8.23;;;;;;;11.82;100.00;98661.16;4185172;28;20396;-71
2022/08/21 04:33:47;;;;;;;12.30;7.63;;;;;;;11.80;100.00;98660.75;4184539;28;20048;-71
2022/08/21 04:35:49;;;;;;;11.23;6.75;;;;;;;11.82;100.00;98659.19;4184317;28;20052;-71
2022/08/21 04:37:50;;;;;;;6.90;5.65;;;;;;;11.86;100.00;98658.44;4185647;28;20340;-71
2022/08/21 04:39:51;;;;;;;7.22;4.90;;;;;;;11.88;100.00;98669.94;4184062;28;20499;-71
2022/08/21 04:41:51;;;;;;;5.43;4.38;;;;;;;11.91;100.00;98669.97;4185427;28;20119;-71
2022/08/21 04:43:51;;;;;;;6.10;4.15;;;;;;;11.90;100.00;98662.84;4184526;28;20036;-71
2022/08/21 04:45:52;;;;;;;4.65;4.18;;;;;;;11.87;100.00;98671.91;4185100;28;20068;-71
2022/08/21 04:47:56;;;;;;;8.20;4.10;;;;;;;11.82;100.00;98673.06;4185167;28;20492;-71
2022/08/21 04:49:56;;;;;;;4.22;3.83;;;;;;;11.80;100.00;98678.19;4183725;28;20435;-70
2022/08/21 04:51:57;;;;;;;6.25;3.75;;;;;;;11.81;100.00;98682.56;4184813;28;20049;-71
2022/08/21 04:54:08;;;;;;;4.45;3.88;;;;;;;11.81;100.00;98687.31;4184362;28;20103;-71
2022/08/21 04:56:18;;;;;;;4.70;4.28;;;;;;;11.83;100.00;98690.47;4184389;28;20045;-71
2022/08/21 04:58:25;;;;;;;4.72;4.22;;;;;;;11.85;100.00;98684.59;4184197;28;20056;-71
2022/08/21 05:00:26;;;;;;;4.28;3.88;;;;;;;11.88;100.00;98692.13;4184481;28;20459;-71
2022/08/21 05:02:27;;;;;;;4.22;3.83;;;;;;;11.93;100.00;98692.59;4185657;28;20431;-71
2022/08/21 05:04:30;;;;;;;4.90;4.40;;;;;;;11.94;100.00;98688.63;4182654;28;20052;-71
2022/08/21 05:06:35;;;;;;;9.30;5.40;;;;;;;11.98;100.00;98683.09;4184492;28;20581;-71
2022/08/21 05:08:36;;;;;;;4.97;4.47;;;;;;;11.97;100.00;98674.00;4183226;28;20504;-71
2022/08/21 05:10:37;;;;;;;9.45;4.90;;;;;;;12.07;100.00;98687.16;4184447;28;20494;-71
2022/08/21 05:12:37;;;;;;;6.15;4.63;;;;;;;12.12;100.00;98688.00;4185057;28;20055;-71
2022/08/21 05:14:37;;;;;;;5.22;4.40;;;;;;;12.20;100.00;98695.19;4184286;28;20125;-71
2022/08/21 05:16:38;;;;;;;5.95;4.68;;;;;;;12.28;100.00;98694.06;4184172;28;20045;-71
2022/08/21 05:18:39;;;;;;;5.50;4.78;;;;;;;12.30;100.00;98700.81;4183550;28;20045;-71
2022/08/21 05:20:39;;;;;;;5.43;4.53;;;;;;;12.31;100.00;98699.63;4185069;28;20203;-71
2022/08/21 05:22:39;;;;;;;5.00;4.50;;;;;;;12.31;100.00;98702.41;4183854;28;20048;-71
2022/08/21 05:24:40;;;;;;;5.38;4.40;;;;;;;12.33;100.00;98702.84;4184603;28;20049;-71
2022/08/21 05:26:40;;;;;;;5.68;4.97;;;;;;;12.36;100.00;98704.03;4184965;28;20422;-71
2022/08/21 05:28:41;;;;;;;7.90;4.75;;;;;;;12.43;100.00;98711.63;4184370;28;20052;-70
2022/08/21 05:30:41;;;;;;;5.13;4.63;;;;;;;12.47;100.00;98701.34;4185323;28;20052;-71
2022/08/21 05:32:41;;;;;;;5.10;4.50;;;;;;;12.52;100.00;98704.56;4184708;28;20053;-71
2022/08/21 05:34:42;;;;;;;5.38;4.88;;;;;;;12.57;100.00;98706.97;4182754;28;20628;-71
2022/08/21 05:36:42;;;;;;;5.70;4.72;;;;;;;12.63;100.00;98704.63;4185220;28;20068;-73
2022/08/21 05:38:43;;;;;;;5.22;4.72;;;;;;;12.71;100.00;98695.16;4184008;28;20040;-72
2022/08/21 05:40:44;;;;;;;5.80;5.18;;;;;;;12.76;100.00;98700.38;4184964;28;20531;-71
2022/08/21 05:42:45;;;;;;;6.03;4.80;;;;;;;12.85;100.00;98703.59;4187776;28;20040;-71
2022/08/21 05:44:45;;;;;;;5.70;5.10;;;;;;;12.92;100.00;98706.41;4186323;28;20682;-73
2022/08/21 05:46:45;;;;;;;6.15;5.20;;;;;;;13.00;100.00;98704.47;4187838;28;20097;-71
2022/08/21 05:48:46;;;;;;;7.45;5.82;;;;;;;13.08;100.00;98703.31;4185839;28;20053;-71
2022/08/21 05:50:48;;;;;;;7.57;6.22;;;;;;;13.17;100.00;98701.00;4186664;28;20048;-71
2022/08/21 05:52:48;;;;;;;6.13;5.32;;;;;;;13.24;100.00;98702.22;4187548;28;20079;-71
2022/08/21 05:54:49;;;;;;;6.93;5.80;;;;;;;13.33;100.00;98699.91;4184903;28;20311;-72
2022/08/21 05:56:49;;;;;;;6.40;5.78;;;;;;;13.41;100.00;98701.53;4186513;28;20155;-72
2022/08/21 05:58:50;;;;;;;9.13;6.60;;;;;;;13.48;100.00;98707.88;4186502;28;20045;-72
2022/08/21 06:00:51;;;;;;;7.43;6.22;;;;;;;13.59;100.00;98705.16;4187693;28;20066;-72
2022/08/21 06:02:51;;;;;;;10.27;6.88;;;;;;;13.71;100.00;98706.75;4184567;28;20048;-71
2022/08/21 06:04:51;;;;;;;8.15;6.70;;;;;;;13.83;100.00;98703.63;4185111;28;20635;-71
2022/08/21 06:06:52;;;;;;;8.48;6.80;;;;;;;13.94;100.00;98700.84;4187676;28;20503;-71
2022/08/21 06:08:52;;;;;;;7.93;7.00;;;;;;;14.04;100.00;98689.72;4186138;28;20528;-71
2022/08/21 06:10:56;;;;;;;9.32;7.65;;;;;;;14.19;100.00;98687.75;4186767;28;20143;-71
2022/08/21 06:12:56;;;;;;;10.02;7.80;;;;;;;14.33;100.00;98690.56;4186257;28;20231;-71
2022/08/21 06:14:56;;;;;;;9.82;8.07;;;;;;;14.43;100.00;98700.09;4185001;28;20380;-71
2022/08/21 06:17:04;;;;;;;10.70;8.82;;;;;;;14.55;100.00;98693.34;4185235;28;20051;-72
2022/08/21 06:19:05;;;;;;;10.30;8.45;;;;;;;14.58;100.00;98687.78;4183763;28;20496;-71
2022/08/21 06:21:06;;;;;;;11.07;8.52;;;;;;;14.66;100.00;98693.34;4185032;28;20139;-71
2022/08/21 06:23:07;;;;;;;9.48;7.78;;;;;;;14.69;100.00;98696.09;4186488;28;20079;-72
2022/08/21 06:25:09;;;;;;;12.75;8.95;;;;;;;14.80;100.00;98690.50;4184389;28;20383;-71
2022/08/21 06:27:10;;;;;;;11.80;9.43;;;;;;;14.85;100.00;98690.13;4187073;28;20032;-71
2022/08/21 06:29:12;;;;;;;13.25;8.35;;;;;;;14.99;100.00;98695.66;4185396;28;20056;-71
2022/08/21 06:31:16;;;;;;;12.70;8.60;;;;;;;15.05;100.00;98690.44;4184560;28;20500;-71
2022/08/21 06:33:17;;;;;;;10.43;8.25;;;;;;;15.17;100.00;98698.38;4185973;28;20044;-71
2022/08/21 06:35:17;;;;;;;14.45;9.25;;;;;;;15.19;100.00;98690.41;4184728;28;20075;-71
2022/08/21 06:37:17;;;;;;;10.65;8.65;;;;;;;15.28;100.00;98684.41;4184375;28;20133;-72
2022/08/21 06:39:18;;;;;;;11.05;8.20;;;;;;;15.36;100.00;98685.97;4186282;28;20659;-72
2022/08/21 06:41:19;;;;;;;13.52;9.23;;;;;;;15.41;100.00;98682.75;4185431;28;20511;-72
2022/08/21 06:43:20;;;;;;;10.98;8.82;;;;;;;15.44;100.00;98690.31;4184858;28;20032;-72
2022/08/21 06:45:21;;;;;;;10.02;8.18;;;;;;;15.56;100.00;98695.44;4184827;28;20206;-72
2022/08/21 06:47:21;;;;;;;12.40;8.93;;;;;;;15.64;100.00;98696.22;4185455;28;20040;-72
2022/08/21 06:49:22;;;;;;;11.43;9.38;;;;;;;15.70;100.00;98689.78;4179430;28;20516;-72
2022/08/21 06:51:23;;;;;;;10.75;8.13;;;;;;;15.79;100.00;98688.56;4180974;28;20041;-72
2022/08/21 06:53:23;;;;;;;12.45;8.98;;;;;;;15.87;100.00;98681.72;4178957;28;20131;-72
2022/08/21 06:55:24;;;;;;;10.25;8.45;;;;;;;15.95;100.00;98689.63;4178793;28;20506;-72
2022/08/21 06:57:25;;;;;;;9.35;8.32;;;;;;;16.01;100.00;98684.44;4185231;28;20123;-72
2022/08/21 06:59:25;;;;;;;10.25;7.88;;;;;;;16.08;100.00;98684.38;4183949;28;20656;-72
2022/08/21 07:01:26;;;;;;;10.38;9.25;;;;;;;16.19;100.00;98682.28;4184457;28;20043;-73
2022/08/21 07:03:33;;;;;;;16.35;9.20;;;;;;;16.29;100.00;98681.41;4183938;28;20191;-73
2022/08/21 07:05:34;;;;;;;9.20;7.80;;;;;;;16.36;100.00;98685.34;4128254;28;20056;-72
2022/08/21 07:07:34;;;;;;;9.00;7.65;;;;;;;16.39;100.00;98690.94;4185049;28;20610;-72
2022/08/21 07:09:35;;;;;;;9.60;8.48;;;;;;;16.50;100.00;98685.25;4186484;28;20156;-72
2022/08/21 07:11:35;;;;;;;10.98;9.40;;;;;;;16.55;100.00;98687.59;4186125;28;20338;-72
2022/08/21 07:13:35;;;;;;;8.82;7.22;;;;;;;16.63;100.00;98680.72;4184241;28;20086;-72
2022/08/21 07:15:36;;;;;;;10.50;8.88;;;;;;;16.77;100.00;98688.19;4184714;28;20127;-72
2022/08/21 07:17:36;;;;;;;12.07;9.10;;;;;;;16.92;100.00;98694.44;4185568;28;20056;-72
2022/08/21 07:19:37;;;;;;;9.07;8.00;;;;;;;17.00;100.00;98693.16;4185785;28;20048;-72
2022/08/21 07:21:37;;;;;;;10.32;9.23;;;;;;;17.04;100.00;98691.09;4185909;28;20513;-72
2022/08/21 07:23:42;;;;;;;10.98;9.30;;;;;;;17.15;100.00;98691.00;4186592;28;20151;-72
2022/08/21 07:25:42;;;;;;;11.73;9.27;;;;;;;17.12;100.00;98689.81;4184670;28;20080;-72
2022/08/21 07:27:43;;;;;;;13.15;9.90;;;;;;;17.21;100.00;98684.53;4186644;28;20068;-72
2022/08/21 07:29:43;;;;;;;12.40;9.48;;;;;;;17.26;100.00;98686.84;4184189;28;20040;-72
2022/08/21 07:31:44;;;;;;;11.73;9.18;;;;;;;17.30;100.00;98687.63;4185053;28;20045;-72
2022/08/21 07:33:45;;;;;;;10.25;9.15;;;;;;;17.38;100.00;98693.94;4186282;28;20135;-72
2022/08/21 07:35:45;;;;;;;14.73;9.80;;;;;;;17.46;100.00;98689.00;4185201;28;20164;-72
2022/08/21 07:37:46;;;;;;;9.27;8.07;;;;;;;17.52;100.00;98688.13;4187386;28;20120;-71
2022/08/21 07:39:48;;;;;;;9.18;7.65;;;;;;;17.61;100.00;98687.63;4184282;28;20041;-71
2022/08/21 07:41:49;;;;;;;13.77;10.45;;;;;;;17.72;100.00;98688.31;4185413;28;20472;-72
2022/08/21 07:43:49;;;;;;;10.77;9.25;;;;;;;17.85;100.00;98682.91;4186082;28;20051;-72
2022/08/21 07:45:49;;;;;;;10.07;8.95;;;;;;;18.00;100.00;98686.31;4184711;28;20033;-72
2022/08/21 07:47:51;;;;;;;10.82;9.73;;;;;;;18.05;100.00;98674.63;4184319;28;20113;-72
2022/08/21 07:49:52;;;;;;;9.80;8.80;;;;;;;18.12;99.97;98675.31;4184277;28;20045;-72
2022/08/21 07:51:52;;;;;;;10.20;8.50;;;;;;;18.20;99.01;98679.59;4185214;28;20286;-72
2022/08/21 07:53:54;;;;;;;10.70;9.13;;;;;;;18.21;97.67;98678.38;4185701;28;20052;-72
2022/08/21 07:55:57;;;;;;;;;;;;;;;18.27;97.49;98681.47;4186440;28;20361;-72
2022/08/21 07:57:57;;;;;;;15.07;10.83;;;;;;;18.26;96.90;98679.88;4184927;28;19916;-72
2022/08/21 07:59:57;;;;;;;14.18;10.38;;;;;;;18.24;97.44;98673.94;4181863;28;20064;-72
2022/08/21 08:01:58;;;;;;;12.05;9.88;;;;;;;18.26;97.02;98677.09;4184882;28;20148;-72
2022/08/21 08:03:58;;;;;;;12.25;9.73;;;;;;;18.22;96.19;98679.16;4184411;28;20047;-72
2022/08/21 08:05:59;;;;;;;15.02;10.60;;;;;;;18.19;97.15;98668.78;4184094;28;20601;-72
2022/08/21 08:07:59;;;;;;;13.00;10.20;;;;;;;18.19;96.80;98675.19;4185449;28;20068;-72
2022/08/21 08:10:00;;;;;;;12.30;10.82;;;;;;;18.21;97.08;98669.19;4185443;28;20036;-72
2022/08/21 08:12:00;;;;;;;14.32;10.88;;;;;;;18.28;96.48;98668.25;4185008;28;20174;-72
2022/08/21 08:14:03;;;;;;;11.88;10.52;;;;;;;18.39;96.28;98675.28;4184614;28;20037;-72
2022/08/21 08:16:04;;;;;;;13.63;10.70;;;;;;;18.43;94.00;98661.19;4184876;28;20028;-73
2022/08/21 08:18:04;;;;;;;11.65;9.88;;;;;;;18.41;94.43;98658.03;4184987;28;20028;-72
2022/08/21 08:20:07;;;;;;;10.70;8.57;;;;;;;18.37;92.09;98660.09;4185655;28;20055;-72
2022/08/21 08:22:19;;;;;;;12.43;9.88;;;;;;;18.42;93.29;98662.44;4181009;28;20075;-72
2022/08/21 08:24:19;;;;;;;16.27;11.30;;;;;;;18.52;94.70;98659.44;4186319;28;20120;-72
2022/08/21 08:26:19;;;;;;;10.55;9.35;;;;;;;18.62;93.10;98657.69;4184418;28;20064;-72
2022/08/21 08:28:21;;;;;;;14.57;10.32;;;;;;;18.67;92.00;98654.41;4185209;28;20512;-71
2022/08/21 08:30:23;;;;;;;13.53;9.43;;;;;;;18.83;86.85;98655.72;4184408;28;20385;-72
2022/08/21 08:32:24;;;;;;;13.25;10.68;;;;;;;18.97;88.36;98659.06;4184601;28;20550;-71
2022/08/21 08:34:24;;;;;;;11.00;8.88;;;;;;;18.99;86.86;98650.19;4185208;28;20148;-72
2022/08/21 08:36:33;;;;;;;13.98;10.15;;;;;;;19.01;88.71;98651.34;4186663;28;20385;-72
2022/08/21 08:38:34;;;;;;;13.13;10.40;;;;;;;19.10;90.00;98656.38;4185636;28;20048;-71
2022/08/21 08:41:02;;;;;;;13.55;11.38;;;;;;;19.23;90.76;98648.91;4184035;28;20516;-72
2022/08/21 08:43:02;;;;;;;12.32;9.98;;;;;;;19.34;89.59;98651.47;4185021;28;20136;-71
2022/08/21 08:45:10;;;;;;;12.55;10.63;;;;;;;19.44;90.09;98656.06;4178718;28;20091;-72
2022/08/21 08:47:15;;;;;;;13.05;10.80;;;;;;;19.48;87.63;98645.56;4184139;28;20086;-72
2022/08/21 08:49:23;;;;;;;16.48;11.75;;;;;;;19.61;87.49;98645.72;4184784;28;20547;-71
2022/08/21 08:51:41;;;;;;;14.23;11.57;;;;;;;19.55;85.89;98639.81;4184750;28;20744;-72
2022/08/21 08:53:57;;;;;;;16.70;11.80;;;;;;;19.29;87.03;98644.38;4183993;28;20048;-72
2022/08/21 08:55:57;;;;;;;15.75;12.20;;;;;;;19.14;88.98;98647.91;4185683;28;20044;-72
2022/08/21 08:57:58;;;;;;;14.85;13.23;;;;;;;19.06;88.90;98639.63;4184285;28;20665;-72
2022/08/21 09:00:01;;;;;;;13.80;11.60;;;;;;;19.00;88.26;98640.56;4185384;28;20098;-71
2022/08/21 09:02:01;;;;;;;12.15;10.77;;;;;;;19.01;89.05;98644.94;4184170;28;20037;-72
2022/08/21 09:04:02;;;;;;;13.18;10.90;;;;;;;19.00;89.20;98634.97;4184858;28;20031;-72
2022/08/21 09:06:06;;;;;;;20.25;15.07;;;;;;;19.06;89.11;98639.63;4184709;28;20033;-72
2022/08/21 09:08:36;;;;;;;15.85;13.52;;;;;;;19.09;89.28;98643.59;4185059;28;20020;-72
2022/08/21 09:10:43;;;;;;;13.85;11.05;;;;;;;19.12;88.19;98637.13;4186082;28;20056;-72
2022/08/21 09:13:05;;;;;;;13.65;10.93;;;;;;;19.25;88.20;98631.66;4184123;28;20044;-72
2022/08/21 09:15:43;;;;;;;13.63;10.75;;;;;;;19.28;84.05;98628.78;4185901;28;20041;-72
2022/08/21 09:18:04;;;;;;;12.90;10.55;;;;;;;19.57;82.98;98628.19;4187154;28;20102;-72
2022/08/21 09:20:16;;;;;;;14.70;11.52;;;;;;;19.76;83.40;98623.75;4187525;28;20174;-72
2022/08/21 09:22:35;;;;;;;12.82;9.88;;;;;;;19.92;82.12;98618.94;4188424;28;20027;-72
2022/08/21 09:24:54;;;;;;;14.98;11.23;;;;;;;20.02;81.36;98625.50;4187407;28;20741;-72
2022/08/21 09:27:11;;;;;;;14.48;10.75;;;;;;;20.15;81.93;98620.00;4187758;28;20037;-72